Clinton, WA (98236)

6:55 AM PDT on July 26, 2016 (GMT -0700)
FOB Whidbey | | Change Station

Elev 85 ft 47.95 °N, 122.44 °W | Updated 20 seconds ago

Mostly Cloudy
Mostly Cloudy
53.1 °F
Feels Like 53.1 °F
N
0.0
Wind Variable Wind from WNW

Today
High -- | Low -- °F
--% Chance of Precip.
Yesterday
High -- | Low -- °F
Precip. -- in
Pressure 30.15 in
Visibility 8.0 miles
Clouds Mostly Cloudy 900 ft
Dew Point 53 °F
Humidity 99%
Rainfall 0.00 in
Snow Depth Not available.
5:39 AM 8:52 PM
Waning Gibbous, 54% visible
SPECI KPAE 261334Z AUTO 04004KT 8SM BKN009 14/12 A3015 RMK AO2 T01390122
Pressure 30.15 in
Visibility 8.0 miles
Clouds Mostly Cloudy 900 ft
Dew Point 53 °F
Humidity 99%
Rainfall 0.00 in
Snow Depth Not available.
5:39 AM 8:52 PM
Waning Gibbous, 54% visible
SPECI KPAE 261334Z AUTO 04004KT 8SM BKN009 14/12 A3015 RMK AO2 T01390122

10-Day Weather Forecast

Almanac

Astronomy

Jul. 26, 2016 Rise Set
Actual Time
Civil Twilight
Nautical Twilight
Astronomical Twilight
Moon
Length of Visible Light
Length of Day
Tomorrow will be .
, % of the Moon is Illuminated

Today's Extremes

State Highs State Lows

Community

WunderPhotos

Upload Photos

1,927,587 photos uploaded!

WunderBlog® & News

Nearby

Air Quality

  Air Quality AQ Index Pollutant
Not available.

Snow Depth

Station Depth Elevation

Earthquake Activity

City Distance Mag. Time & Date
Minimum magnitude displayed is 2.5.

Coastal Water Temperatures

Place Temperature

Stations

Nearby Weather Stations

Station Location Temp. Windchill Dew Point Humidity Wind Precip. Elev Updated Type
                   

Watches & Warnings

There are currently no watches in effect.